Time;durP1;ratioP1;P1;durP2;ratioP2;P2;SDS_P1;SDS_P2;PMS_P1;PMS_P2;Temp;Humidity;BMP_temperature;BMP_pressure;BME280_temperature;BME280_humidity;BME280_pressure;Samples;Min_cycle;Max_cycle;Signal;HPM_P1;HPM_P2
2023/03/15 00:01:28;;;;;;;6.50;2.23;;;5.50;99.90;;;;;;10317240;28;20562;-75
2023/03/15 00:06:33;;;;;;;3.60;2.00;;;5.30;99.90;;;;;;10308357;28;20212;-71
2023/03/15 00:11:34;;;;;;;6.77;2.27;;;5.10;99.90;;;;;;10312377;28;20256;-73
2023/03/15 00:16:35;;;;;;;6.13;2.27;;;4.90;99.90;;;;;;10321435;28;20809;-76
2023/03/15 00:21:35;;;;;;;11.23;2.20;;;4.70;99.90;;;;;;10313311;28;20636;-74
2023/03/15 00:26:37;;;;;;;9.40;2.50;;;4.50;99.90;;;;;;10319902;28;20214;-72
2023/03/15 00:31:38;;;;;;;6.93;2.10;;;4.40;99.90;;;;;;10310397;28;20587;-70
2023/03/15 00:36:42;;;;;;;8.37;2.17;;;4.30;99.90;;;;;;10312212;28;20226;-74
2023/03/15 00:41:44;;;;;;;5.97;1.90;;;4.20;99.90;;;;;;10314653;28;20233;-71
2023/03/15 00:46:47;;;;;;;5.40;1.43;;;4.10;99.90;;;;;;10320182;28;20233;-77
2023/03/15 00:51:47;;;;;;;8.67;1.97;;;4.00;99.90;;;;;;10318868;28;20231;-72
2023/03/15 00:56:48;;;;;;;3.20;1.27;;;4.00;99.90;;;;;;10307929;28;20631;-72
2023/03/15 01:01:49;;;;;;;5.77;1.80;;;3.90;99.90;;;;;;10314079;28;20961;-72
2023/03/15 01:06:50;;;;;;;4.60;1.70;;;3.80;99.90;;;;;;10314505;28;20257;-72
2023/03/15 01:11:51;;;;;;;7.10;1.77;;;3.70;99.90;;;;;;10318394;28;20364;-71
2023/03/15 01:16:51;;;;;;;7.50;1.67;;;3.60;99.90;;;;;;10311037;28;20257;-73
2023/03/15 01:21:52;;;;;;;4.77;2.00;;;3.60;99.90;;;;;;10320510;28;20229;-75
2023/03/15 01:26:52;;;;;;;4.80;1.50;;;3.50;99.90;;;;;;10321224;28;20228;-73
2023/03/15 01:31:53;;;;;;;5.67;2.10;;;3.40;99.90;;;;;;10306992;28;20303;-73
2023/03/15 01:36:53;;;;;;;6.30;1.67;;;3.40;99.90;;;;;;10305983;28;20701;-71
2023/03/15 01:41:54;;;;;;;7.57;2.07;;;3.30;99.90;;;;;;10313501;28;20273;-72
2023/03/15 01:46:55;;;;;;;5.80;1.77;;;3.20;99.90;;;;;;10324827;28;20230;-72
2023/03/15 01:52:04;;;;;;;9.03;1.70;;;3.10;99.90;;;;;;10316142;28;20224;-71
2023/03/15 01:57:21;;;;;;;4.47;1.60;;;3.10;99.90;;;;;;10333950;28;20252;-71
2023/03/15 02:02:24;;;;;;;5.77;1.63;;;3.10;99.90;;;;;;10311006;28;20284;-72
2023/03/15 02:07:27;;;;;;;5.27;2.23;;;3.00;99.90;;;;;;10323547;28;20270;-72
2023/03/15 02:12:31;;;;;;;3.73;1.60;;;3.00;99.90;;;;;;10336283;28;20255;-72
2023/03/15 02:17:40;;;;;;;8.50;1.90;;;2.90;99.90;;;;;;10318130;28;20365;-74
2023/03/15 02:22:54;;;;;;;3.97;1.70;;;2.90;99.90;;;;;;10319937;28;20223;-75
2023/03/15 02:27:56;;;;;;;4.43;1.67;;;2.80;99.90;;;;;;10321466;28;20233;-75
2023/03/15 02:33:00;;;;;;;6.47;1.60;;;2.80;99.90;;;;;;10317347;28;20218;-73
2023/03/15 02:38:01;;;;;;;7.70;2.27;;;2.80;99.90;;;;;;10322801;28;20240;-74
2023/03/15 02:43:05;;;;;;;7.50;1.97;;;2.70;99.90;;;;;;10330601;28;20237;-70
2023/03/15 02:48:07;;;;;;;3.30;1.63;;;2.60;99.90;;;;;;10332080;28;20226;-73
2023/03/15 02:53:08;;;;;;;4.43;1.70;;;2.60;99.90;;;;;;10326238;28;20230;-72
2023/03/15 02:58:08;;;;;;;5.27;2.40;;;2.50;99.90;;;;;;10324260;28;20230;-73
2023/03/15 03:03:10;;;;;;;4.93;2.00;;;2.50;99.90;;;;;;10310468;28;20228;-73
2023/03/15 03:08:11;;;;;;;7.90;1.80;;;2.50;99.90;;;;;;10317492;28;20234;-73
2023/03/15 03:13:11;;;;;;;8.97;2.33;;;2.50;99.90;;;;;;10325328;28;20280;-73
2023/03/15 03:18:12;;;;;;;8.77;2.30;;;2.40;99.90;;;;;;10331235;28;20284;-72
2023/03/15 03:23:12;;;;;;;5.73;1.97;;;2.40;99.90;;;;;;10327321;28;20248;-71
2023/03/15 03:28:13;;;;;;;9.70;2.80;;;2.30;99.90;;;;;;10326544;28;20234;-72
2023/03/15 03:33:14;;;;;;;12.83;2.57;;;2.30;99.90;;;;;;10316079;28;20217;-72
2023/03/15 03:38:15;;;;;;;4.63;2.10;;;2.30;99.90;;;;;;10314444;28;20700;-71
2023/03/15 03:43:15;;;;;;;6.33;2.20;;;2.30;99.90;;;;;;10306733;28;20237;-71
2023/03/15 03:48:16;;;;;;;15.10;2.67;;;2.30;99.90;;;;;;10322722;28;20244;-71
2023/03/15 03:53:16;;;;;;;6.90;2.40;;;2.20;99.90;;;;;;10338060;28;20214;-72
2023/03/15 03:58:17;;;;;;;8.40;2.33;;;2.20;99.90;;;;;;10313512;28;20419;-71
2023/03/15 04:03:17;;;;;;;9.13;2.60;;;2.20;99.90;;;;;;10326705;28;20696;-71
2023/03/15 04:08:18;;;;;;;7.23;2.43;;;2.10;99.90;;;;;;10313096;28;20316;-76
2023/03/15 04:13:19;;;;;;;9.23;2.63;;;2.10;99.90;;;;;;10312547;28;20724;-74
2023/03/15 04:18:20;;;;;;;6.13;2.43;;;2.10;99.90;;;;;;10319402;28;20226;-71
2023/03/15 04:23:22;;;;;;;6.67;2.90;;;2.10;99.90;;;;;;10320721;28;20214;-70
2023/03/15 04:28:23;;;;;;;8.13;2.47;;;2.00;99.90;;;;;;10305623;28;20334;-70
2023/03/15 04:33:24;;;;;;;6.10;2.37;;;2.00;99.90;;;;;;10324352;28;20658;-70
2023/03/15 04:38:26;;;;;;;6.40;2.50;;;2.10;99.90;;;;;;10318683;28;20297;-70
2023/03/15 04:43:26;;;;;;;6.60;2.63;;;2.10;99.90;;;;;;10319903;28;20222;-71
2023/03/15 04:48:27;;;;;;;8.27;2.30;;;2.10;99.90;;;;;;10319615;28;20218;-71
2023/03/15 04:53:27;;;;;;;7.23;2.23;;;2.20;99.90;;;;;;10305141;28;20305;-71
2023/03/15 04:58:28;;;;;;;6.87;2.33;;;2.20;99.90;;;;;;10306962;28;20217;-71
2023/03/15 05:03:28;;;;;;;6.33;2.67;;;2.20;99.90;;;;;;10309928;28;20240;-71
2023/03/15 05:08:29;;;;;;;8.03;3.07;;;2.20;99.90;;;;;;10310960;28;20263;-76
2023/03/15 05:13:30;;;;;;;8.13;3.07;;;2.30;99.90;;;;;;10304507;28;20230;-71
2023/03/15 05:18:30;;;;;;;5.53;2.77;;;2.40;99.90;;;;;;10311709;28;20250;-72
2023/03/15 05:23:32;;;;;;;7.77;3.17;;;2.50;99.90;;;;;;10330116;28;20248;-77
2023/03/15 05:28:33;;;;;;;5.00;2.40;;;2.70;99.90;;;;;;10313516;28;20712;-73
2023/03/15 05:33:33;;;;;;;8.57;2.80;;;2.90;99.90;;;;;;10318217;28;20220;-72
2023/03/15 05:38:34;;;;;;;8.63;2.77;;;3.00;99.90;;;;;;10325694;28;20336;-72
2023/03/15 05:43:34;;;;;;;6.07;2.60;;;3.10;99.90;;;;;;10317594;28;20536;-72
2023/03/15 05:48:35;;;;;;;10.40;3.60;;;3.10;99.90;;;;;;10317743;28;20232;-71
2023/03/15 05:53:35;;;;;;;5.67;3.10;;;3.10;99.90;;;;;;10323445;28;20268;-70
2023/03/15 05:58:36;;;;;;;7.50;2.87;;;3.20;99.90;;;;;;10321750;28;20233;-72
2023/03/15 06:03:37;;;;;;;7.10;3.03;;;3.30;99.90;;;;;;10325662;28;20228;-69
2023/03/15 06:08:37;;;;;;;7.67;2.90;;;3.30;99.90;;;;;;10326439;28;20843;-73
2023/03/15 06:13:38;;;;;;;9.43;3.20;;;3.30;99.90;;;;;;10317480;28;20246;-73
2023/03/15 06:18:38;;;;;;;7.03;3.57;;;3.50;99.90;;;;;;10321239;28;20244;-74
2023/03/15 06:23:39;;;;;;;6.43;3.20;;;3.50;99.90;;;;;;10319382;28;20218;-73
2023/03/15 06:28:40;;;;;;;12.03;4.13;;;3.50;99.90;;;;;;10303908;28;20233;-72
2023/03/15 06:33:41;;;;;;;12.67;5.33;;;3.50;99.90;;;;;;10301231;28;20613;-74
2023/03/15 06:38:41;;;;;;;7.90;3.43;;;3.50;99.90;;;;;;10308708;28;20225;-72
2023/03/15 06:43:45;;;;;;;8.17;3.60;;;3.60;99.90;;;;;;10317543;28;20226;-72
2023/03/15 06:48:45;;;;;;;15.00;7.60;;;3.60;99.90;;;;;;10312272;28;20242;-72
2023/03/15 06:53:46;;;;;;;9.47;4.17;;;3.50;99.90;;;;;;10308159;28;20224;-72
2023/03/15 06:58:47;;;;;;;10.43;4.30;;;3.50;99.90;;;;;;10313264;28;20249;-72
2023/03/15 07:03:47;;;;;;;9.00;4.03;;;3.50;99.90;;;;;;10310460;28;20225;-72
2023/03/15 07:08:48;;;;;;;8.93;3.60;;;3.50;99.90;;;;;;10315000;28;20234;-72
2023/03/15 07:13:49;;;;;;;7.33;3.80;;;3.60;99.90;;;;;;10315732;28;20761;-72
2023/03/15 07:18:49;;;;;;;8.87;3.83;;;3.70;99.90;;;;;;10310324;28;20229;-72
2023/03/15 07:23:50;;;;;;;8.27;3.80;;;3.80;99.90;;;;;;10323067;28;20230;-72
2023/03/15 07:28:51;;;;;;;7.77;3.50;;;4.10;99.90;;;;;;10310153;28;20236;-72
2023/03/15 07:33:51;;;;;;;8.70;4.13;;;4.50;99.90;;;;;;10310957;28;20211;-73
2023/03/15 07:38:52;;;;;;;9.73;4.67;;;4.60;99.90;;;;;;10314500;28;20646;-73
2023/03/15 07:43:52;;;;;;;11.40;4.50;;;4.80;99.90;;;;;;10318174;28;20253;-72
2023/03/15 07:48:53;;;;;;;10.73;4.33;;;4.90;99.90;;;;;;10310184;28;20233;-71
2023/03/15 07:53:53;;;;;;;10.13;4.00;;;4.90;99.90;;;;;;10308139;28;20704;-71
2023/03/15 07:58:54;;;;;;;10.83;4.50;;;4.90;99.90;;;;;;10310253;28;20230;-71
2023/03/15 08:03:54;;;;;;;12.33;4.93;;;5.00;99.90;;;;;;10325551;28;20276;-73
2023/03/15 08:09:00;;;;;;;9.63;4.90;;;5.30;99.90;;;;;;10317721;28;20234;-72
2023/03/15 08:14:00;;;;;;;9.73;4.70;;;5.50;99.90;;;;;;10310170;28;20222;-72
2023/03/15 08:19:04;;;;;;;11.83;4.53;;;5.50;99.90;;;;;;10316423;28;20227;-73
2023/03/15 08:24:05;;;;;;;10.70;4.87;;;5.50;99.90;;;;;;10306195;28;20234;-72
2023/03/15 08:29:05;;;;;;;7.93;4.20;;;5.50;99.90;;;;;;10309891;28;20839;-73
2023/03/15 08:34:06;;;;;;;10.43;5.13;;;5.60;99.90;;;;;;10312117;28;20246;-73
2023/03/15 08:39:07;;;;;;;10.63;4.57;;;5.50;99.90;;;;;;10317944;28;20233;-71
2023/03/15 08:44:08;;;;;;;8.90;4.70;;;5.40;99.90;;;;;;10310023;28;20292;-72
2023/03/15 08:49:08;;;;;;;9.83;4.90;;;5.40;99.90;;;;;;10304550;28;20241;-72
2023/03/15 08:54:09;;;;;;;12.30;5.00;;;5.50;99.90;;;;;;10317642;28;20363;-72
2023/03/15 08:59:13;;;;;;;11.27;5.03;;;5.50;99.90;;;;;;10303053;28;20237;-72
2023/03/15 09:04:13;;;;;;;11.10;5.43;;;5.50;99.90;;;;;;10309947;28;20242;-74
2023/03/15 09:09:16;;;;;;;8.67;5.17;;;5.50;99.90;;;;;;10317638;28;20229;-72
2023/03/15 09:14:16;;;;;;;11.23;5.63;;;5.30;99.90;;;;;;10310430;28;20271;-72
2023/03/15 09:19:17;;;;;;;9.77;5.83;;;5.10;99.90;;;;;;10313767;28;20235;-72
2023/03/15 09:24:17;;;;;;;11.27;6.00;;;5.10;99.90;;;;;;10310172;28;20222;-72
2023/03/15 09:29:18;;;;;;;10.73;6.10;;;5.10;99.90;;;;;;10309904;28;20280;-72
2023/03/15 09:34:19;;;;;;;9.83;5.90;;;5.00;99.90;;;;;;10302705;28;20218;-72
2023/03/15 09:39:20;;;;;;;12.50;6.07;;;5.00;99.90;;;;;;10301995;28;20272;-72
2023/03/15 09:44:46;;;;;;;9.23;5.40;;;5.00;99.90;;;;;;10309309;28;20826;-71
2023/03/15 09:49:58;;;;;;;12.27;6.40;;;5.00;99.90;;;;;;10305723;28;20238;-72
2023/03/15 09:55:11;;;;;;;11.53;7.00;;;5.00;99.90;;;;;;10301717;28;20226;-72
2023/03/15 10:00:17;;;;;;;8.63;6.47;;;4.80;99.90;;;;;;10311519;28;20226;-72
2023/03/15 10:05:24;;;;;;;11.73;6.87;;;4.80;99.90;;;;;;10309390;28;20249;-72
2023/03/15 10:10:35;;;;;;;9.60;7.13;;;5.00;99.90;;;;;;10311139;28;20239;-72
2023/03/15 10:16:02;;;;;;;8.67;5.90;;;5.50;99.90;;;;;;10312620;28;20316;-72
2023/03/15 10:21:14;;;;;;;8.30;5.83;;;6.00;99.90;;;;;;10310594;28;20231;-72
2023/03/15 10:26:21;;;;;;;10.13;6.20;;;6.20;99.90;;;;;;10324481;28;20300;-72
2023/03/15 10:31:26;;;;;;;9.20;5.73;;;6.20;99.90;;;;;;10307777;28;20254;-72
2023/03/15 10:36:26;;;;;;;7.03;5.03;;;6.00;99.90;;;;;;10321999;28;20249;-72
2023/03/15 10:41:42;;;;;;;8.80;5.33;;;6.10;99.90;;;;;;10309836;28;20250;-72
2023/03/15 10:46:59;;;;;;;6.60;4.60;;;6.40;99.90;;;;;;10313381;28;20230;-72
2023/03/15 10:51:59;;;;;;;9.03;4.53;;;6.60;99.90;;;;;;10313701;28;20552;-73
2023/03/15 10:57:04;;;;;;;7.07;4.03;;;7.30;99.90;;;;;;10309853;28;20226;-73
2023/03/15 11:02:11;;;;;;;8.30;3.83;;;7.70;99.90;;;;;;10315593;28;20913;-72
2023/03/15 11:07:12;;;;;;;5.90;3.60;;;7.50;99.90;;;;;;10314601;28;20237;-72
2023/03/15 11:12:23;;;;;;;8.10;4.10;;;7.40;99.90;;;;;;10314361;28;20702;-71
2023/03/15 11:17:35;;;;;;;7.60;4.47;;;7.50;99.90;;;;;;10319082;28;20262;-73
2023/03/15 11:22:35;;;;;;;6.40;4.13;;;7.50;99.90;;;;;;10322950;28;20241;-72
2023/03/15 11:27:42;;;;;;;4.57;3.67;;;7.60;99.90;;;;;;10311555;28;20306;-72
2023/03/15 11:32:45;;;;;;;9.27;4.07;;;7.70;99.90;;;;;;10313973;28;20225;-73
2023/03/15 11:37:50;;;;;;;6.83;4.13;;;7.70;99.90;;;;;;10310672;28;20286;-72
2023/03/15 11:43:19;;;;;;;6.40;3.93;;;7.60;99.90;;;;;;10309871;28;20218;-74
2023/03/15 11:48:55;;;;;;;5.80;3.90;;;7.40;99.90;;;;;;10320324;28;20717;-72
2023/03/15 11:54:13;;;;;;;4.90;3.83;;;7.20;99.90;;;;;;10302111;28;20224;-73
2023/03/15 11:59:24;;;;;;;6.63;4.00;;;7.20;99.90;;;;;;10305102;28;20235;-72
2023/03/15 12:04:25;;;;;;;5.13;3.80;;;7.40;99.90;;;;;;10328579;28;20215;-73
2023/03/15 12:09:31;;;;;;;5.30;3.40;;;8.20;99.90;;;;;;10311543;28;20294;-74
2023/03/15 12:14:34;;;;;;;5.83;3.10;;;8.80;99.90;;;;;;10305280;28;20220;-72
2023/03/15 12:19:34;;;;;;;4.80;3.43;;;9.00;99.90;;;;;;10313127;28;20221;-72
2023/03/15 12:24:37;;;;;;;6.27;3.67;;;8.90;99.90;;;;;;10319516;28;20218;-71
2023/03/15 12:29:38;;;;;;;4.93;4.10;;;8.50;99.90;;;;;;10311763;28;20225;-73
2023/03/15 12:34:50;;;;;;;6.37;3.53;;;8.10;99.90;;;;;;10309572;28;20292;-73
2023/03/15 12:40:13;;;;;;;6.83;4.47;;;7.70;99.90;;;;;;10307201;28;20235;-74
2023/03/15 12:45:14;;;;;;;8.53;5.30;;;7.40;99.90;;;;;;10292923;28;20227;-74
2023/03/15 12:50:46;;;;;;;6.47;4.90;;;7.30;99.90;;;;;;10310853;28;20209;-72
2023/03/15 12:55:51;;;;;;;7.00;4.10;;;7.40;99.90;;;;;;10306744;28;20771;-72
2023/03/15 13:00:53;;;;;;;4.80;3.40;;;8.20;99.90;;;;;;10312668;28;20218;-72
2023/03/15 13:06:18;;;;;;;3.97;2.50;;;9.30;99.90;;;;;;10307376;28;20221;-73
2023/03/15 13:11:44;;;;;;;2.97;2.40;;;9.50;99.90;;;;;;10309962;28;20265;-74
2023/03/15 13:17:08;;;;;;;3.17;1.93;;;9.10;99.90;;;;;;10307379;28;20373;-73
2023/03/15 13:22:24;;;;;;;2.23;1.93;;;8.90;99.90;;;;;;10342484;28;20263;-74
2023/03/15 13:27:36;;;;;;;2.73;2.10;;;8.70;99.90;;;;;;10302795;28;20273;-71
2023/03/15 13:32:37;;;;;;;2.20;2.00;;;8.90;99.90;;;;;;10308355;28;20232;-73
2023/03/15 13:37:43;;;;;;;4.03;2.53;;;9.30;99.90;;;;;;10311413;28;20230;-72
2023/03/15 13:42:44;;;;;;;4.37;2.23;;;9.40;99.90;;;;;;10307712;28;20232;-73
2023/03/15 13:47:45;;;;;;;3.03;2.73;;;9.20;99.90;;;;;;10314408;28;20586;-73
2023/03/15 13:52:47;;;;;;;2.47;1.90;;;9.00;99.90;;;;;;10310591;28;20560;-72
2023/03/15 13:57:56;;;;;;;1.30;1.20;;;9.00;99.90;;;;;;10314799;28;20257;-73
2023/03/15 14:03:04;;;;;;;2.33;2.10;;;9.00;99.90;;;;;;10321063;28;20773;-72
2023/03/15 14:08:14;;;;;;;6.13;3.17;;;8.90;99.90;;;;;;10332570;28;20238;-73
2023/03/15 14:13:24;;;;;;;3.53;2.13;;;9.00;99.90;;;;;;10323945;28;20800;-72
2023/03/15 14:18:31;;;;;;;2.90;2.60;;;8.80;99.90;;;;;;10310157;28;20223;-73
2023/03/15 14:23:38;;;;;;;5.97;2.43;;;8.80;99.90;;;;;;10316191;28;20723;-74
2023/03/15 14:28:40;;;;;;;2.70;2.13;;;9.00;99.90;;;;;;10308878;28;20591;-73
2023/03/15 14:33:41;;;;;;;5.73;2.30;;;9.20;99.90;;;;;;10317733;28;20218;-72
2023/03/15 14:38:53;;;;;;;4.53;2.30;;;9.30;99.90;;;;;;10308685;28;20288;-73
2023/03/15 14:43:54;;;;;;;6.87;2.40;;;9.50;99.90;;;;;;10323539;28;20251;-73
2023/03/15 14:48:54;;;;;;;3.60;1.90;;;9.50;99.90;;;;;;10311921;28;20343;-73
2023/03/15 14:53:57;;;;;;;2.10;1.73;;;9.50;99.90;;;;;;10312531;28;20240;-72
2023/03/15 14:58:58;;;;;;;3.57;2.03;;;9.40;99.90;;;;;;10314349;28;20254;-71
2023/03/15 15:04:01;;;;;;;5.00;2.30;;;9.30;99.90;;;;;;10319943;28;20229;-73
2023/03/15 15:09:04;;;;;;;3.57;1.70;;;9.20;99.90;;;;;;10317046;28;20964;-73
2023/03/15 15:14:12;;;;;;;2.43;1.60;;;8.90;99.90;;;;;;10318363;28;20338;-73
2023/03/15 15:19:13;;;;;;;4.17;1.60;;;8.70;99.90;;;;;;10307647;28;20977;-73
2023/03/15 15:24:17;;;;;;;2.87;1.63;;;8.70;99.90;;;;;;10314264;28;20232;-72
2023/03/15 15:29:18;;;;;;;3.50;1.60;;;8.60;99.90;;;;;;10312547;28;20844;-72
2023/03/15 15:34:18;;;;;;;2.00;1.40;;;8.70;99.90;;;;;;10314629;28;20371;-72
2023/03/15 15:39:28;;;;;;;3.13;1.97;;;8.80;99.90;;;;;;10307346;28;20269;-72
2023/03/15 15:44:28;;;;;;;1.83;1.50;;;8.90;99.90;;;;;;10307428;28;20230;-71
2023/03/15 15:49:29;;;;;;;3.57;1.00;;;8.70;99.90;;;;;;10312737;28;20241;-72
2023/03/15 15:54:30;;;;;;;7.67;1.37;;;8.50;99.90;;;;;;10307350;28;20229;-72
2023/03/15 15:59:31;;;;;;;2.27;1.60;;;8.40;99.90;;;;;;10326883;28;20254;-72
2023/03/15 16:04:31;;;;;;;2.33;1.70;;;8.20;99.90;;;;;;10316324;28;20225;-72
2023/03/15 16:09:36;;;;;;;5.07;1.87;;;8.00;99.90;;;;;;10304912;28;20231;-73
2023/03/15 16:14:36;;;;;;;3.50;1.70;;;7.80;99.90;;;;;;10311204;28;20218;-72
2023/03/15 16:19:37;;;;;;;3.90;2.30;;;7.70;99.90;;;;;;10306833;28;20222;-72
2023/03/15 16:24:42;;;;;;;4.90;3.00;;;7.50;99.90;;;;;;10316694;28;20227;-72
2023/03/15 16:29:46;;;;;;;2.23;2.00;;;7.40;99.90;;;;;;10307744;28;20222;-72
2023/03/15 16:34:48;;;;;;;3.03;2.07;;;7.30;99.90;;;;;;10323444;28;20222;-72
2023/03/15 16:39:51;;;;;;;2.03;1.73;;;7.20;99.90;;;;;;10312022;28;20254;-73
2023/03/15 16:44:52;;;;;;;3.17;1.87;;;7.10;99.90;;;;;;10311635;28;20242;-73
2023/03/15 16:49:53;;;;;;;5.83;2.10;;;7.00;99.90;;;;;;10311925;28;20226;-72
2023/03/15 16:54:54;;;;;;;5.63;1.90;;;6.90;99.90;;;;;;10307820;28;20226;-73
2023/03/15 16:59:54;;;;;;;3.20;1.60;;;6.80;99.90;;;;;;10320551;28;20280;-73
2023/03/15 17:04:55;;;;;;;3.13;1.80;;;6.70;99.90;;;;;;10307156;28;20218;-73
2023/03/15 17:09:56;;;;;;;6.67;2.40;;;6.60;99.90;;;;;;10314240;28;20806;-73
2023/03/15 17:14:58;;;;;;;8.17;4.23;;;6.40;99.90;;;;;;10306615;28;20250;-72
2023/03/15 17:19:59;;;;;;;5.73;2.67;;;6.30;99.90;;;;;;10305719;28;20229;-73
2023/03/15 17:25:00;;;;;;;3.40;1.80;;;6.10;99.90;;;;;;10310282;28;20226;-71
2023/03/15 17:30:01;;;;;;;2.43;1.63;;;6.00;99.90;;;;;;10315004;28;20325;-72
2023/03/15 17:35:01;;;;;;;3.40;2.03;;;5.70;99.90;;;;;;10312355;28;20217;-72
2023/03/15 17:40:11;;;;;;;2.60;1.80;;;5.40;99.90;;;;;;10304876;28;20246;-71
2023/03/15 17:45:19;;;;;;;3.40;2.30;;;5.20;99.90;;;;;;10315517;28;20225;-73
2023/03/15 17:50:22;;;;;;;4.57;2.67;;;5.00;99.90;;;;;;10302370;28;20298;-72
2023/03/15 17:55:26;;;;;;;5.10;3.07;;;4.80;99.90;;;;;;10302344;28;20585;-71
2023/03/15 18:00:27;;;;;;;3.53;1.73;;;4.60;99.90;;;;;;10309361;28;20213;-72
2023/03/15 18:05:28;;;;;;;4.83;1.93;;;4.50;99.90;;;;;;10312471;28;20568;-71
2023/03/15 18:10:38;;;;;;;4.27;2.30;;;4.40;99.90;;;;;;10315382;28;20296;-71
2023/03/15 18:15:39;;;;;;;2.47;1.97;;;4.30;99.90;;;;;;10318141;28;20247;-72
2023/03/15 18:20:39;;;;;;;4.43;2.70;;;4.20;99.90;;;;;;10315498;28;20319;-72
2023/03/15 18:25:41;;;;;;;4.17;2.40;;;4.10;99.90;;;;;;10320972;28;20226;-73
2023/03/15 18:30:43;;;;;;;3.87;2.30;;;3.90;99.90;;;;;;10313886;28;20230;-72
2023/03/15 18:35:43;;;;;;;5.20;3.10;;;3.80;99.90;;;;;;10314575;28;20310;-72
2023/03/15 18:40:44;;;;;;;5.37;3.60;;;3.70;99.90;;;;;;10323071;28;20236;-71
2023/03/15 18:45:45;;;;;;;6.03;3.40;;;3.60;99.90;;;;;;10322001;28;20216;-72
2023/03/15 18:50:46;;;;;;;4.97;3.53;;;3.60;99.90;;;;;;10320716;28;20320;-71
2023/03/15 18:55:47;;;;;;;8.27;4.33;;;3.60;99.90;;;;;;10329767;28;20259;-72
2023/03/15 19:00:47;;;;;;;5.90;4.73;;;3.60;99.90;;;;;;10322385;28;20234;-72
2023/03/15 19:05:48;;;;;;;8.77;4.97;;;3.50;99.90;;;;;;10311639;28;20707;-72
2023/03/15 19:10:56;;;;;;;6.97;5.00;;;3.50;99.90;;;;;;10322137;28;20237;-71
2023/03/15 19:15:57;;;;;;;8.90;5.63;;;3.40;99.90;;;;;;10328016;28;20227;-70
2023/03/15 19:20:58;;;;;;;10.87;6.57;;;3.40;99.90;;;;;;10330001;28;20241;-70
2023/03/15 19:25:59;;;;;;;7.10;5.10;;;3.40;99.90;;;;;;10329977;28;20222;-71
2023/03/15 19:30:59;;;;;;;7.63;5.47;;;3.30;99.90;;;;;;10329507;28;20760;-70
2023/03/15 19:36:00;;;;;;;13.30;6.77;;;3.20;99.90;;;;;;10320459;28;20308;-69
2023/03/15 19:41:03;;;;;;;13.03;8.37;;;3.20;99.90;;;;;;10319959;28;20685;-69
2023/03/15 19:46:06;;;;;;;11.60;7.80;;;3.20;99.90;;;;;;10329808;28;20951;-70
2023/03/15 19:51:07;;;;;;;11.07;7.63;;;3.10;99.90;;;;;;10327107;28;20733;-69
2023/03/15 19:56:10;;;;;;;13.30;8.57;;;3.00;99.90;;;;;;10319824;28;20272;-69
2023/03/15 20:01:10;;;;;;;16.40;8.53;;;3.00;99.90;;;;;;10309532;28;20223;-69
2023/03/15 20:06:12;;;;;;;12.07;7.93;;;2.90;99.90;;;;;;10315353;28;20288;-69
2023/03/15 20:11:18;;;;;;;17.37;8.83;;;2.90;99.90;;;;;;10311727;28;20290;-69
2023/03/15 20:16:21;;;;;;;14.50;7.50;;;2.90;99.90;;;;;;10318809;28;20230;-69
2023/03/15 20:21:22;;;;;;;10.07;7.10;;;2.90;99.90;;;;;;10318847;28;20297;-70
2023/03/15 20:26:23;;;;;;;12.47;6.50;;;2.90;99.90;;;;;;10326906;28;20275;-69
2023/03/15 20:31:24;;;;;;;10.20;6.27;;;2.80;99.90;;;;;;10328359;28;20339;-69
2023/03/15 20:36:25;;;;;;;13.67;7.20;;;2.80;99.90;;;;;;10328018;28;20228;-68
2023/03/15 20:41:26;;;;;;;9.80;6.07;;;2.80;99.90;;;;;;10326105;28;20987;-69
2023/03/15 20:46:28;;;;;;;11.37;6.20;;;2.80;99.90;;;;;;10317327;28;20339;-70
2023/03/15 20:51:28;;;;;;;9.70;6.37;;;2.80;99.90;;;;;;10323553;28;20214;-75
2023/03/15 20:56:29;;;;;;;10.90;7.20;;;2.80;99.90;;;;;;10324266;28;20225;-75
2023/03/15 21:01:30;;;;;;;11.40;6.70;;;2.70;99.90;;;;;;10325097;28;20214;-78
2023/03/15 21:06:31;;;;;;;13.83;7.17;;;2.60;99.90;;;;;;10324572;28;20256;-75
2023/03/15 21:11:31;;;;;;;10.47;6.30;;;2.60;99.90;;;;;;10320250;28;20304;-74
2023/03/15 21:16:32;;;;;;;10.43;6.30;;;2.60;99.90;;;;;;10325331;28;20226;-76
2023/03/15 21:21:33;;;;;;;11.47;7.00;;;2.50;99.90;;;;;;10321492;28;20255;-76
2023/03/15 21:26:34;;;;;;;11.27;7.63;;;2.40;99.90;;;;;;10318723;28;20235;-76
2023/03/15 21:31:35;;;;;;;13.73;7.60;;;2.30;99.90;;;;;;10326521;28;20233;-76
2023/03/15 21:36:35;;;;;;;10.47;6.80;;;2.30;99.90;;;;;;10316481;28;20245;-76
2023/03/15 21:41:36;;;;;;;8.90;7.00;;;2.20;99.90;;;;;;10320921;28;20696;-76
2023/03/15 21:46:37;;;;;;;10.70;6.67;;;2.10;99.90;;;;;;10317218;28;20222;-76
2023/03/15 21:51:38;;;;;;;13.10;7.10;;;2.10;99.90;;;;;;10324713;28;20818;-72
2023/03/15 21:56:39;;;;;;;16.57;7.87;;;2.00;99.90;;;;;;10329824;28;20229;-73
2023/03/15 22:01:40;;;;;;;10.60;6.87;;;1.90;99.90;;;;;;10313817;28;20291;-72
2023/03/15 22:06:41;;;;;;;12.27;8.07;;;1.90;99.90;;;;;;10314927;28;20747;-72
2023/03/15 22:11:41;;;;;;;11.73;7.97;;;1.80;99.90;;;;;;10327812;28;20237;-72
2023/03/15 22:16:42;;;;;;;14.40;8.23;;;1.80;99.90;;;;;;10322245;28;20214;-75
2023/03/15 22:21:43;;;;;;;11.60;7.53;;;1.70;99.90;;;;;;10328474;28;20225;-73
2023/03/15 22:26:44;;;;;;;15.50;7.53;;;1.70;99.90;;;;;;10331498;28;20246;-74
2023/03/15 22:31:44;;;;;;;16.23;7.63;;;1.70;99.90;;;;;;10321713;28;20761;-74
2023/03/15 22:36:45;;;;;;;12.47;7.80;;;1.60;99.90;;;;;;10323633;28;20217;-74
2023/03/15 22:41:45;;;;;;;11.63;7.23;;;1.60;99.90;;;;;;10323442;28;20225;-72
2023/03/15 22:46:46;;;;;;;14.47;7.97;;;1.50;99.90;;;;;;10329714;28;20229;-69
2023/03/15 22:51:46;;;;;;;11.37;6.90;;;1.50;99.90;;;;;;10327398;28;20222;-72
2023/03/15 22:56:47;;;;;;;10.50;7.30;;;1.50;99.90;;;;;;10330741;28;20570;-75
2023/03/15 23:01:48;;;;;;;10.53;6.40;;;1.50;99.90;;;;;;10323438;28;20615;-73
2023/03/15 23:06:50;;;;;;;10.23;6.30;;;1.50;99.90;;;;;;10325657;28;20234;-75
2023/03/15 23:11:51;;;;;;;13.67;6.43;;;1.50;99.90;;;;;;10323132;28;20258;-74
2023/03/15 23:16:51;;;;;;;9.10;6.53;;;1.50;99.90;;;;;;10322975;28;20245;-74
2023/03/15 23:21:52;;;;;;;9.93;6.00;;;1.50;99.90;;;;;;10327390;28;20234;-75
2023/03/15 23:26:55;;;;;;;11.90;6.90;;;1.40;99.90;;;;;;10322687;28;20224;-70
2023/03/15 23:31:56;;;;;;;9.83;5.80;;;1.40;99.90;;;;;;10323448;28;20249;-71
2023/03/15 23:36:56;;;;;;;9.57;5.87;;;1.40;99.90;;;;;;10323057;28;20685;-73
2023/03/15 23:41:57;;;;;;;8.63;5.60;;;1.40;99.90;;;;;;10323253;28;20230;-73
2023/03/15 23:46:58;;;;;;;11.13;6.30;;;1.40;99.90;;;;;;10324856;28;20617;-74
2023/03/15 23:52:04;;;;;;;11.00;6.53;;;1.40;99.90;;;;;;10322076;28;20237;-74
2023/03/15 23:57:10;;;;;;;8.97;6.13;;;1.40;99.90;;;;;;10322870;28;20232;-74
